Time,TemperatureF,DewpointF,PressureIn,WindDirection,WindDirectionDegrees,WindSpeedMPH,WindSpeedGustMPH,Humidity,HourlyPrecipIn,Conditions,Clouds,dailyrainin,SoftwareType,DateUTC
2013-08-30 00:02:00,66.7,59.6,29.75,SSW,202,0.0,-999.0,78,-99.99,,,0.00,Acu-Link.com,2013-08-30 07:02:00,
2013-08-30 00:17:00,66.6,59.5,29.76,South,180,2.2,-999.0,78,-99.99,,,0.00,Acu-Link.com,2013-08-30 07:17:00,
2013-08-30 00:32:00,66.7,59.6,29.75,East,90,2.2,-999.0,78,-99.99,,,0.00,Acu-Link.com,2013-08-30 07:32:00,
2013-08-30 00:47:00,66.0,58.9,29.76,WNW,292,1.7,-999.0,78,-99.99,,,0.00,Acu-Link.com,2013-08-30 07:47:00,
2013-08-30 01:02:00,65.3,59.0,29.76,NNE,22,0.0,-999.0,80,-99.99,,,0.00,Acu-Link.com,2013-08-30 08:02:00,
2013-08-30 01:18:00,65.1,58.8,29.76,NW,315,0.0,-999.0,80,-99.99,,,0.00,Acu-Link.com,2013-08-30 08:18:00,
2013-08-30 01:33:00,64.9,58.9,29.76,ESE,112,0.0,-999.0,81,-99.99,,,0.00,Acu-Link.com,2013-08-30 08:33:00,
2013-08-30 01:49:00,64.8,58.8,29.77,SSE,157,0.0,-999.0,81,-99.99,,,0.00,Acu-Link.com,2013-08-30 08:49:00,
2013-08-30 02:04:00,64.2,58.9,29.76,ESE,112,0.0,-999.0,83,-99.99,,,0.00,Acu-Link.com,2013-08-30 09:04:00,
2013-08-30 02:19:00,63.3,58.7,29.76,SSE,157,0.0,-999.0,85,-99.99,,,0.00,Acu-Link.com,2013-08-30 09:19:00,
2013-08-30 02:34:00,62.8,58.9,29.75,ENE,67,0.0,-999.0,87,-99.99,,,0.00,Acu-Link.com,2013-08-30 09:34:00,
2013-08-30 02:49:00,61.5,58.5,29.75,North,0,0.0,-999.0,90,-99.99,,,0.00,Acu-Link.com,2013-08-30 09:49:00,
2013-08-30 03:04:00,61.5,58.5,29.75,West,270,0.0,-999.0,90,-99.99,,,0.00,Acu-Link.com,2013-08-30 10:04:00,
2013-08-30 03:19:00,61.3,58.3,29.75,SSW,202,0.0,-999.0,90,-99.99,,,0.00,Acu-Link.com,2013-08-30 10:19:00,
2013-08-30 03:35:00,60.8,58.2,29.75,NW,315,0.0,-999.0,91,-99.99,,,0.00,Acu-Link.com,2013-08-30 10:35:00,
2013-08-30 03:50:00,60.1,58.1,29.76,WNW,292,0.0,-999.0,93,-99.99,,,0.00,Acu-Link.com,2013-08-30 10:50:00,
2013-08-30 04:05:00,59.5,57.8,29.75,NNW,337,0.0,-999.0,94,-99.99,,,0.00,Acu-Link.com,2013-08-30 11:05:00,
2013-08-30 04:20:00,58.8,57.4,29.76,NW,315,0.0,-999.0,95,-99.99,,,0.00,Acu-Link.com,2013-08-30 11:20:00,
2013-08-30 04:35:00,58.6,57.5,29.76,NNW,337,0.0,-999.0,96,-99.99,,,0.00,Acu-Link.com,2013-08-30 11:35:00,
2013-08-30 04:50:00,58.3,57.5,29.77,NNW,337,0.0,-999.0,97,-99.99,,,0.00,Acu-Link.com,2013-08-30 11:50:00,
2013-08-30 05:05:00,58.1,57.5,29.77,NW,315,0.0,-999.0,98,-99.99,,,0.00,Acu-Link.com,2013-08-30 12:05:00,
2013-08-30 05:20:00,57.9,57.3,29.77,NW,315,0.0,-999.0,98,-99.99,,,0.00,Acu-Link.com,2013-08-30 12:20:00,
2013-08-30 05:35:00,57.7,57.1,29.77,NNW,337,0.0,-999.0,98,-99.99,,,0.00,Acu-Link.com,2013-08-30 12:35:00,
2013-08-30 05:51:00,57.4,56.8,29.77,NNE,22,0.0,-999.0,98,-99.99,,,0.00,Acu-Link.com,2013-08-30 12:51:00,
2013-08-30 06:06:00,57.0,56.4,29.78,North,0,0.0,-999.0,98,-99.99,,,0.00,Acu-Link.com,2013-08-30 13:06:00,
2013-08-30 06:21:00,56.8,56.2,29.78,NW,315,0.0,-999.0,98,-99.99,,,0.00,Acu-Link.com,2013-08-30 13:21:00,
2013-08-30 06:36:00,56.8,56.2,29.79,NNW,337,0.0,-999.0,98,-99.99,,,0.00,Acu-Link.com,2013-08-30 13:36:00,
2013-08-30 06:51:00,56.7,56.1,29.79,North,0,0.0,-999.0,98,-99.99,,,0.00,Acu-Link.com,2013-08-30 13:51:00,
2013-08-30 07:06:00,56.5,55.9,29.79,NNE,22,0.0,-999.0,98,-99.99,,,0.00,Acu-Link.com,2013-08-30 14:06:00,
2013-08-30 07:21:00,56.8,56.2,29.80,ESE,112,0.0,-999.0,98,-99.99,,,0.00,Acu-Link.com,2013-08-30 14:21:00,
2013-08-30 07:36:00,56.8,56.2,29.79,ESE,112,0.0,-999.0,98,-99.99,,,0.00,Acu-Link.com,2013-08-30 14:36:00,
2013-08-30 07:51:00,57.7,57.1,29.79,SSW,202,0.0,-999.0,98,-99.99,,,0.00,Acu-Link.com,2013-08-30 14:51:00,
2013-08-30 08:06:00,58.3,57.7,29.80,WNW,292,0.0,-999.0,98,-99.99,,,0.00,Acu-Link.com,2013-08-30 15:06:00,
2013-08-30 08:22:00,60.8,60.2,29.80,South,180,0.0,-999.0,98,-99.99,,,0.00,Acu-Link.com,2013-08-30 15:22:00,
2013-08-30 08:37:00,63.0,60.6,29.79,SSE,157,0.0,-999.0,92,-99.99,,,0.00,Acu-Link.com,2013-08-30 15:37:00,
2013-08-30 08:52:00,65.3,61.3,29.79,SSE,157,0.0,-999.0,87,-99.99,,,0.00,Acu-Link.com,2013-08-30 15:52:00,
2013-08-30 09:07:00,67.6,61.6,29.79,SW,225,0.0,-999.0,81,-99.99,,,0.00,Acu-Link.com,2013-08-30 16:07:00,
2013-08-30 09:22:00,69.1,61.6,29.79,SSE,157,0.0,-999.0,77,-99.99,,,0.00,Acu-Link.com,2013-08-30 16:22:00,
2013-08-30 09:37:00,70.7,62.0,29.79,South,180,2.7,-999.0,74,-99.99,,,0.00,Acu-Link.com,2013-08-30 16:37:00,
2013-08-30 09:52:00,71.6,62.1,29.79,South,180,1.7,-999.0,72,-99.99,,,0.00,Acu-Link.com,2013-08-30 16:52:00,
2013-08-30 10:07:00,73.4,62.6,29.78,SSE,157,1.1,-999.0,69,-99.99,,,0.00,Acu-Link.com,2013-08-30 17:07:00,
2013-08-30 10:22:00,73.6,62.4,29.78,SSE,157,1.7,-999.0,68,-99.99,,,0.00,Acu-Link.com,2013-08-30 17:22:00,
2013-08-30 10:38:00,74.3,62.6,29.77,ESE,112,2.2,-999.0,67,-99.99,,,0.00,Acu-Link.com,2013-08-30 17:38:00,
2013-08-30 10:53:00,75.6,62.5,29.77,SSW,202,3.2,-999.0,64,-99.99,,,0.00,Acu-Link.com,2013-08-30 17:53:00,
2013-08-30 11:08:00,77.0,63.4,29.77,SSW,202,1.7,-999.0,63,-99.99,,,0.00,Acu-Link.com,2013-08-30 18:08:00,
2013-08-30 11:23:00,78.4,62.9,29.76,South,180,2.2,-999.0,59,-99.99,,,0.00,Acu-Link.com,2013-08-30 18:23:00,
2013-08-30 11:38:00,79.3,63.7,29.75,SW,225,1.1,-999.0,59,-99.99,,,0.00,Acu-Link.com,2013-08-30 18:38:00,
2013-08-30 11:53:00,78.4,62.4,29.75,South,180,3.7,-999.0,58,-99.99,,,0.00,Acu-Link.com,2013-08-30 18:53:00,
2013-08-30 12:08:00,79.9,62.8,29.74,SSW,202,1.7,-999.0,56,-99.99,,,0.00,Acu-Link.com,2013-08-30 19:08:00,
2013-08-30 12:23:00,81.9,63.1,29.73,SSE,157,3.7,-999.0,53,-99.99,,,0.00,Acu-Link.com,2013-08-30 19:23:00,
2013-08-30 12:38:00,83.7,63.6,29.72,South,180,2.7,-999.0,51,-99.99,,,0.00,Acu-Link.com,2013-08-30 19:38:00,
2013-08-30 12:54:00,82.4,63.0,29.72,South,180,2.7,-999.0,52,-99.99,,,0.00,Acu-Link.com,2013-08-30 19:54:00,
2013-08-30 13:09:00,86.0,64.6,29.71,SSE,157,2.7,-999.0,49,-99.99,,,0.00,Acu-Link.com,2013-08-30 20:09:00,
2013-08-30 13:24:00,85.3,63.4,29.71,South,180,2.2,-999.0,48,-99.99,,,0.00,Acu-Link.com,2013-08-30 20:24:00,
2013-08-30 13:39:00,84.4,63.1,29.70,SSW,202,2.7,-999.0,49,-99.99,,,0.00,Acu-Link.com,2013-08-30 20:39:00,
2013-08-30 13:54:00,86.9,63.6,29.70,South,180,2.2,-999.0,46,-99.99,,,0.00,Acu-Link.com,2013-08-30 20:54:00,
2013-08-30 14:09:00,87.8,63.8,29.70,SE,135,1.7,-999.0,45,-99.99,,,0.00,Acu-Link.com,2013-08-30 21:09:00,
2013-08-30 14:25:00,91.4,63.6,29.69,West,270,1.7,-999.0,40,-99.99,,,0.00,Acu-Link.com,2013-08-30 21:25:00,
2013-08-30 14:40:00,88.7,62.6,29.68,South,180,3.2,-999.0,42,-99.99,,,0.00,Acu-Link.com,2013-08-30 21:40:00,
2013-08-30 14:55:00,88.2,62.8,29.67,ENE,67,3.2,-999.0,43,-99.99,,,0.00,Acu-Link.com,2013-08-30 21:55:00,
2013-08-30 15:10:00,91.9,62.6,29.67,ENE,67,0.0,-999.0,38,-99.99,,,0.00,Acu-Link.com,2013-08-30 22:10:00,
2013-08-30 15:25:00,89.4,63.2,29.66,South,180,2.7,-999.0,42,-99.99,,,0.00,Acu-Link.com,2013-08-30 22:25:00,
2013-08-30 15:40:00,89.1,61.6,29.66,SSW,202,0.0,-999.0,40,-99.99,,,0.00,Acu-Link.com,2013-08-30 22:40:00,
2013-08-30 15:55:00,87.3,60.7,29.65,South,180,4.7,-999.0,41,-99.99,,,0.00,Acu-Link.com,2013-08-30 22:55:00,
2013-08-30 16:11:00,86.9,60.3,29.65,SSE,157,2.2,-999.0,41,-99.99,,,0.00,Acu-Link.com,2013-08-30 23:11:00,
2013-08-30 16:26:00,86.5,61.3,29.64,SSW,202,3.7,-999.0,43,-99.99,,,0.00,Acu-Link.com,2013-08-30 23:26:00,
2013-08-30 16:41:00,86.7,61.5,29.64,South,180,1.7,-999.0,43,-99.99,,,0.00,Acu-Link.com,2013-08-30 23:41:00,
2013-08-30 16:56:00,86.0,60.9,29.63,SSE,157,1.7,-999.0,43,-99.99,,,0.00,Acu-Link.com,2013-08-30 23:56:00,
2013-08-30 17:11:00,86.2,61.0,29.63,South,180,3.2,-999.0,43,-99.99,,,0.00,Acu-Link.com,2013-08-31 00:11:00,
2013-08-30 17:26:00,85.5,61.1,29.63,South,180,3.2,-999.0,44,-99.99,,,0.00,Acu-Link.com,2013-08-31 00:26:00,
2013-08-30 17:41:00,85.3,60.9,29.64,South,180,2.2,-999.0,44,-99.99,,,0.00,Acu-Link.com,2013-08-31 00:41:00,
2013-08-30 17:57:00,84.7,60.3,29.62,South,180,3.7,-999.0,44,-99.99,,,0.00,Acu-Link.com,2013-08-31 00:57:00,
2013-08-30 18:12:00,84.2,59.9,29.62,South,180,3.7,-999.0,44,-99.99,,,0.00,Acu-Link.com,2013-08-31 01:12:00,
2013-08-30 18:27:00,83.7,59.4,29.62,South,180,3.2,-999.0,44,-99.99,,,0.00,Acu-Link.com,2013-08-31 01:27:00,
2013-08-30 18:42:00,83.5,58.6,29.63,SE,135,3.7,-999.0,43,-99.99,,,0.00,Acu-Link.com,2013-08-31 01:42:00,
2013-08-30 18:57:00,82.4,58.9,29.62,ENE,67,1.7,-999.0,45,-99.99,,,0.00,Acu-Link.com,2013-08-31 01:57:00,
2013-08-30 19:12:00,81.7,58.3,29.62,ENE,67,2.2,-999.0,45,-99.99,,,0.00,Acu-Link.com,2013-08-31 02:12:00,
2013-08-30 19:27:00,81.0,58.8,29.62,SSW,202,1.7,-999.0,47,-99.99,,,0.00,Acu-Link.com,2013-08-31 02:27:00,
2013-08-30 19:42:00,79.7,58.3,29.62,ENE,67,0.0,-999.0,48,-99.99,,,0.00,Acu-Link.com,2013-08-31 02:42:00,
2013-08-30 19:58:00,78.3,58.7,29.63,South,180,0.0,-999.0,51,-99.99,,,0.00,Acu-Link.com,2013-08-31 02:58:00,
2013-08-30 20:13:00,76.5,58.1,29.63,West,270,0.0,-999.0,53,-99.99,,,0.00,Acu-Link.com,2013-08-31 03:13:00,
2013-08-30 20:28:00,76.3,57.9,29.64,SW,225,0.0,-999.0,53,-99.99,,,0.00,Acu-Link.com,2013-08-31 03:28:00,
2013-08-30 20:43:00,74.8,58.5,29.64,West,270,0.0,-999.0,57,-99.99,,,0.00,Acu-Link.com,2013-08-31 03:43:00,
2013-08-30 20:58:00,74.8,59.0,29.64,SW,225,1.7,-999.0,58,-99.99,,,0.00,Acu-Link.com,2013-08-31 03:58:00,
2013-08-30 21:13:00,73.8,58.6,29.65,South,180,0.0,-999.0,59,-99.99,,,0.00,Acu-Link.com,2013-08-31 04:13:00,
2013-08-30 21:28:00,72.5,59.2,29.66,West,270,0.0,-999.0,63,-99.99,,,0.00,Acu-Link.com,2013-08-31 04:28:00,
2013-08-30 21:44:00,72.5,58.3,29.66,West,270,0.0,-999.0,61,-99.99,,,0.00,Acu-Link.com,2013-08-31 04:44:00,
2013-08-30 21:59:00,72.3,58.5,29.66,South,180,0.0,-999.0,62,-99.99,,,0.00,Acu-Link.com,2013-08-31 04:59:00,
2013-08-30 22:14:00,72.0,59.1,29.66,South,180,0.0,-999.0,64,-99.99,,,0.00,Acu-Link.com,2013-08-31 05:14:00,
2013-08-30 22:29:00,71.4,59.4,29.66,ESE,112,0.0,-999.0,66,-99.99,,,0.00,Acu-Link.com,2013-08-31 05:29:00,
2013-08-30 22:44:00,71.1,60.0,29.67,South,180,0.0,-999.0,68,-99.99,,,0.00,Acu-Link.com,2013-08-31 05:44:00,
2013-08-30 22:59:00,70.5,59.8,29.66,SSE,157,1.7,-999.0,69,-99.99,,,0.00,Acu-Link.com,2013-08-31 05:59:00,
2013-08-30 23:14:00,70.2,59.9,29.66,SSW,202,1.1,-999.0,70,-99.99,,,0.00,Acu-Link.com,2013-08-31 06:14:00,
2013-08-30 23:29:00,69.6,59.8,29.66,South,180,0.0,-999.0,71,-99.99,,,0.00,Acu-Link.com,2013-08-31 06:29:00,
2013-08-30 23:44:00,69.3,59.9,29.67,South,180,1.7,-999.0,72,-99.99,,,0.00,Acu-Link.com,2013-08-31 06:44:00,